sensor_id;sensor_type;location;lat;lon;timestamp;P1;durP1;ratioP1;P2;durP2;ratioP2
2029;SDS011;1020;48.854;8.830;2023-06-22T00:00:10;8.77;;;8.10;;
2029;SDS011;1020;48.854;8.830;2023-06-22T00:02:37;8.47;;;7.80;;
2029;SDS011;1020;48.854;8.830;2023-06-22T00:05:04;8.43;;;7.83;;
2029;SDS011;1020;48.854;8.830;2023-06-22T00:07:31;9.40;;;8.37;;
2029;SDS011;1020;48.854;8.830;2023-06-22T00:09:58;9.83;;;8.93;;
2029;SDS011;1020;48.854;8.830;2023-06-22T00:12:26;8.90;;;8.30;;
2029;SDS011;1020;48.854;8.830;2023-06-22T00:14:53;7.97;;;7.37;;
2029;SDS011;1020;48.854;8.830;2023-06-22T00:17:19;7.77;;;7.10;;
2029;SDS011;1020;48.854;8.830;2023-06-22T00:19:46;9.30;;;8.50;;
2029;SDS011;1020;48.854;8.830;2023-06-22T00:22:18;10.57;;;8.07;;
2029;SDS011;1020;48.854;8.830;2023-06-22T00:24:46;8.50;;;7.80;;
2029;SDS011;1020;48.854;8.830;2023-06-22T00:27:13;9.37;;;8.67;;
2029;SDS011;1020;48.854;8.830;2023-06-22T00:29:41;8.70;;;7.80;;
2029;SDS011;1020;48.854;8.830;2023-06-22T00:32:08;8.40;;;7.77;;
2029;SDS011;1020;48.854;8.830;2023-06-22T00:34:34;8.40;;;7.70;;
2029;SDS011;1020;48.854;8.830;2023-06-22T00:37:01;10.27;;;9.17;;
2029;SDS011;1020;48.854;8.830;2023-06-22T00:39:28;8.97;;;8.27;;
2029;SDS011;1020;48.854;8.830;2023-06-22T00:41:55;10.37;;;9.40;;
2029;SDS011;1020;48.854;8.830;2023-06-22T00:44:22;9.83;;;9.03;;
2029;SDS011;1020;48.854;8.830;2023-06-22T00:46:50;11.17;;;10.27;;
2029;SDS011;1020;48.854;8.830;2023-06-22T00:49:16;10.90;;;9.90;;
2029;SDS011;1020;48.854;8.830;2023-06-22T00:51:43;10.60;;;9.70;;
2029;SDS011;1020;48.854;8.830;2023-06-22T00:54:10;10.27;;;9.47;;
2029;SDS011;1020;48.854;8.830;2023-06-22T00:56:38;10.00;;;9.10;;
2029;SDS011;1020;48.854;8.830;2023-06-22T00:59:05;10.00;;;9.13;;
2029;SDS011;1020;48.854;8.830;2023-06-22T01:01:32;11.10;;;10.20;;
2029;SDS011;1020;48.854;8.830;2023-06-22T01:04:00;9.40;;;8.70;;
2029;SDS011;1020;48.854;8.830;2023-06-22T01:06:29;10.93;;;9.37;;
2029;SDS011;1020;48.854;8.830;2023-06-22T01:09:05;9.90;;;9.10;;
2029;SDS011;1020;48.854;8.830;2023-06-22T01:11:41;9.53;;;8.83;;
2029;SDS011;1020;48.854;8.830;2023-06-22T01:14:12;9.63;;;8.93;;
2029;SDS011;1020;48.854;8.830;2023-06-22T01:16:44;10.07;;;9.27;;
2029;SDS011;1020;48.854;8.830;2023-06-22T01:19:20;10.13;;;9.33;;
2029;SDS011;1020;48.854;8.830;2023-06-22T01:22:00;9.63;;;8.80;;
2029;SDS011;1020;48.854;8.830;2023-06-22T01:24:30;9.70;;;8.90;;
2029;SDS011;1020;48.854;8.830;2023-06-22T01:27:04;9.83;;;8.73;;
2029;SDS011;1020;48.854;8.830;2023-06-22T01:29:48;10.03;;;9.23;;
2029;SDS011;1020;48.854;8.830;2023-06-22T01:32:16;10.00;;;8.97;;
2029;SDS011;1020;48.854;8.830;2023-06-22T01:34:43;10.50;;;9.70;;
2029;SDS011;1020;48.854;8.830;2023-06-22T01:37:11;9.93;;;8.93;;
2029;SDS011;1020;48.854;8.830;2023-06-22T01:39:38;9.47;;;8.70;;
2029;SDS011;1020;48.854;8.830;2023-06-22T01:42:06;9.80;;;8.90;;
2029;SDS011;1020;48.854;8.830;2023-06-22T01:44:32;9.87;;;9.00;;
2029;SDS011;1020;48.854;8.830;2023-06-22T01:47:01;8.60;;;7.90;;
2029;SDS011;1020;48.854;8.830;2023-06-22T01:49:28;9.17;;;8.47;;
2029;SDS011;1020;48.854;8.830;2023-06-22T01:51:56;9.93;;;9.13;;
2029;SDS011;1020;48.854;8.830;2023-06-22T01:54:22;9.00;;;8.33;;
2029;SDS011;1020;48.854;8.830;2023-06-22T01:56:49;9.53;;;8.63;;
2029;SDS011;1020;48.854;8.830;2023-06-22T01:59:18;10.87;;;9.37;;
2029;SDS011;1020;48.854;8.830;2023-06-22T02:01:52;10.13;;;9.37;;
2029;SDS011;1020;48.854;8.830;2023-06-22T02:04:26;9.40;;;8.70;;
2029;SDS011;1020;48.854;8.830;2023-06-22T02:06:58;10.17;;;9.47;;
2029;SDS011;1020;48.854;8.830;2023-06-22T02:09:27;10.00;;;9.20;;
2029;SDS011;1020;48.854;8.830;2023-06-22T02:11:56;10.13;;;9.13;;
2029;SDS011;1020;48.854;8.830;2023-06-22T02:14:24;8.80;;;8.10;;
2029;SDS011;1020;48.854;8.830;2023-06-22T02:16:52;8.33;;;7.73;;
2029;SDS011;1020;48.854;8.830;2023-06-22T02:19:22;10.73;;;9.20;;
2029;SDS011;1020;48.854;8.830;2023-06-22T02:21:51;9.90;;;8.87;;
2029;SDS011;1020;48.854;8.830;2023-06-22T02:24:17;9.50;;;8.70;;
2029;SDS011;1020;48.854;8.830;2023-06-22T02:26:44;9.77;;;8.87;;
2029;SDS011;1020;48.854;8.830;2023-06-22T02:29:11;10.80;;;10.00;;
2029;SDS011;1020;48.854;8.830;2023-06-22T02:31:38;11.47;;;10.40;;
2029;SDS011;1020;48.854;8.830;2023-06-22T02:34:04;11.10;;;10.17;;
2029;SDS011;1020;48.854;8.830;2023-06-22T02:36:31;9.50;;;8.70;;
2029;SDS011;1020;48.854;8.830;2023-06-22T02:39:00;11.17;;;10.17;;
2029;SDS011;1020;48.854;8.830;2023-06-22T02:41:28;10.97;;;10.00;;
2029;SDS011;1020;48.854;8.830;2023-06-22T02:43:55;10.90;;;10.00;;
2029;SDS011;1020;48.854;8.830;2023-06-22T02:46:22;10.07;;;9.17;;
2029;SDS011;1020;48.854;8.830;2023-06-22T02:48:48;10.30;;;9.60;;
2029;SDS011;1020;48.854;8.830;2023-06-22T02:51:15;10.33;;;9.50;;
2029;SDS011;1020;48.854;8.830;2023-06-22T02:53:42;9.60;;;8.80;;
2029;SDS011;1020;48.854;8.830;2023-06-22T02:56:11;9.97;;;9.13;;
2029;SDS011;1020;48.854;8.830;2023-06-22T02:58:38;9.90;;;9.10;;
2029;SDS011;1020;48.854;8.830;2023-06-22T03:01:05;11.20;;;10.10;;
2029;SDS011;1020;48.854;8.830;2023-06-22T03:03:32;10.53;;;9.73;;
2029;SDS011;1020;48.854;8.830;2023-06-22T03:05:58;10.30;;;9.40;;
2029;SDS011;1020;48.854;8.830;2023-06-22T03:08:27;11.63;;;10.60;;
2029;SDS011;1020;48.854;8.830;2023-06-22T03:10:53;11.10;;;10.20;;
2029;SDS011;1020;48.854;8.830;2023-06-22T03:13:22;11.27;;;10.13;;
2029;SDS011;1020;48.854;8.830;2023-06-22T03:15:49;10.57;;;9.30;;
2029;SDS011;1020;48.854;8.830;2023-06-22T03:18:16;10.57;;;9.67;;
2029;SDS011;1020;48.854;8.830;2023-06-22T03:20:43;10.90;;;10.10;;
2029;SDS011;1020;48.854;8.830;2023-06-22T03:23:10;10.40;;;9.70;;
2029;SDS011;1020;48.854;8.830;2023-06-22T03:25:36;9.77;;;9.07;;
2029;SDS011;1020;48.854;8.830;2023-06-22T03:28:03;11.10;;;10.17;;
2029;SDS011;1020;48.854;8.830;2023-06-22T03:30:31;11.80;;;10.70;;
2029;SDS011;1020;48.854;8.830;2023-06-22T03:32:58;9.83;;;9.03;;
2029;SDS011;1020;48.854;8.830;2023-06-22T03:35:25;10.80;;;9.90;;
2029;SDS011;1020;48.854;8.830;2023-06-22T03:37:51;12.07;;;11.00;;
2029;SDS011;1020;48.854;8.830;2023-06-22T03:40:18;12.70;;;11.50;;
2029;SDS011;1020;48.854;8.830;2023-06-22T03:42:45;12.60;;;11.50;;
2029;SDS011;1020;48.854;8.830;2023-06-22T03:45:12;11.83;;;10.83;;
2029;SDS011;1020;48.854;8.830;2023-06-22T03:47:40;13.07;;;11.97;;
2029;SDS011;1020;48.854;8.830;2023-06-22T03:50:07;11.30;;;10.40;;
2029;SDS011;1020;48.854;8.830;2023-06-22T03:52:34;11.77;;;10.70;;
2029;SDS011;1020;48.854;8.830;2023-06-22T03:55:01;11.50;;;10.50;;
2029;SDS011;1020;48.854;8.830;2023-06-22T03:57:27;10.67;;;9.77;;
2029;SDS011;1020;48.854;8.830;2023-06-22T03:59:56;12.20;;;11.10;;
2029;SDS011;1020;48.854;8.830;2023-06-22T04:02:23;11.83;;;10.70;;
2029;SDS011;1020;48.854;8.830;2023-06-22T04:04:51;12.30;;;11.27;;
2029;SDS011;1020;48.854;8.830;2023-06-22T04:07:17;11.20;;;10.30;;
2029;SDS011;1020;48.854;8.830;2023-06-22T04:09:44;11.57;;;10.10;;
2029;SDS011;1020;48.854;8.830;2023-06-22T04:12:11;11.50;;;9.83;;
2029;SDS011;1020;48.854;8.830;2023-06-22T04:14:38;12.73;;;11.43;;
2029;SDS011;1020;48.854;8.830;2023-06-22T04:17:05;12.20;;;11.10;;
2029;SDS011;1020;48.854;8.830;2023-06-22T04:19:31;10.33;;;9.53;;
2029;SDS011;1020;48.854;8.830;2023-06-22T04:22:00;10.87;;;9.97;;
2029;SDS011;1020;48.854;8.830;2023-06-22T04:24:26;11.07;;;10.00;;
2029;SDS011;1020;48.854;8.830;2023-06-22T04:26:53;10.17;;;9.20;;
2029;SDS011;1020;48.854;8.830;2023-06-22T04:29:20;11.50;;;10.33;;
2029;SDS011;1020;48.854;8.830;2023-06-22T04:31:55;11.17;;;10.10;;
2029;SDS011;1020;48.854;8.830;2023-06-22T04:34:23;11.53;;;10.13;;
2029;SDS011;1020;48.854;8.830;2023-06-22T04:36:52;10.90;;;10.00;;
2029;SDS011;1020;48.854;8.830;2023-06-22T04:39:20;11.10;;;10.07;;
2029;SDS011;1020;48.854;8.830;2023-06-22T04:41:48;9.70;;;8.70;;
2029;SDS011;1020;48.854;8.830;2023-06-22T04:44:17;10.57;;;9.57;;
2029;SDS011;1020;48.854;8.830;2023-06-22T04:46:49;10.30;;;9.50;;
2029;SDS011;1020;48.854;8.830;2023-06-22T04:49:19;10.70;;;9.80;;
2029;SDS011;1020;48.854;8.830;2023-06-22T04:51:47;11.13;;;10.20;;
2029;SDS011;1020;48.854;8.830;2023-06-22T04:54:14;10.93;;;10.03;;
2029;SDS011;1020;48.854;8.830;2023-06-22T04:56:42;10.77;;;9.87;;
2029;SDS011;1020;48.854;8.830;2023-06-22T04:59:11;10.77;;;9.57;;
2029;SDS011;1020;48.854;8.830;2023-06-22T05:01:38;11.03;;;9.97;;
2029;SDS011;1020;48.854;8.830;2023-06-22T05:04:05;10.13;;;9.23;;
2029;SDS011;1020;48.854;8.830;2023-06-22T05:06:32;11.60;;;10.60;;
2029;SDS011;1020;48.854;8.830;2023-06-22T05:08:59;11.20;;;10.17;;
2029;SDS011;1020;48.854;8.830;2023-06-22T05:11:26;10.30;;;9.40;;
2029;SDS011;1020;48.854;8.830;2023-06-22T05:13:55;9.80;;;8.93;;
2029;SDS011;1020;48.854;8.830;2023-06-22T05:16:22;10.53;;;9.47;;
2029;SDS011;1020;48.854;8.830;2023-06-22T05:18:53;11.10;;;10.27;;
2029;SDS011;1020;48.854;8.830;2023-06-22T05:21:24;11.50;;;10.30;;
2029;SDS011;1020;48.854;8.830;2023-06-22T05:23:52;10.43;;;9.60;;
2029;SDS011;1020;48.854;8.830;2023-06-22T05:26:21;10.73;;;9.93;;
2029;SDS011;1020;48.854;8.830;2023-06-22T05:28:48;10.07;;;9.27;;
2029;SDS011;1020;48.854;8.830;2023-06-22T05:31:16;10.13;;;9.43;;
2029;SDS011;1020;48.854;8.830;2023-06-22T05:33:45;10.37;;;9.20;;
2029;SDS011;1020;48.854;8.830;2023-06-22T05:36:12;10.37;;;9.33;;
2029;SDS011;1020;48.854;8.830;2023-06-22T05:38:39;10.50;;;9.60;;
2029;SDS011;1020;48.854;8.830;2023-06-22T05:41:06;11.90;;;9.47;;
2029;SDS011;1020;48.854;8.830;2023-06-22T05:43:33;9.87;;;8.90;;
2029;SDS011;1020;48.854;8.830;2023-06-22T05:46:01;10.67;;;9.77;;
2029;SDS011;1020;48.854;8.830;2023-06-22T05:48:29;9.90;;;9.20;;
2029;SDS011;1020;48.854;8.830;2023-06-22T05:50:56;11.03;;;9.90;;
2029;SDS011;1020;48.854;8.830;2023-06-22T05:53:23;10.97;;;9.07;;
2029;SDS011;1020;48.854;8.830;2023-06-22T05:55:50;11.27;;;10.10;;
2029;SDS011;1020;48.854;8.830;2023-06-22T05:58:17;8.63;;;7.93;;
2029;SDS011;1020;48.854;8.830;2023-06-22T06:00:44;9.80;;;9.00;;
2029;SDS011;1020;48.854;8.830;2023-06-22T06:03:11;9.63;;;8.73;;
2029;SDS011;1020;48.854;8.830;2023-06-22T06:05:43;10.47;;;8.60;;
2029;SDS011;1020;48.854;8.830;2023-06-22T06:08:11;9.77;;;8.83;;
2029;SDS011;1020;48.854;8.830;2023-06-22T06:10:37;9.23;;;7.60;;
2029;SDS011;1020;48.854;8.830;2023-06-22T06:13:04;8.67;;;7.97;;
2029;SDS011;1020;48.854;8.830;2023-06-22T06:15:31;10.00;;;8.47;;
2029;SDS011;1020;48.854;8.830;2023-06-22T06:17:58;9.10;;;7.83;;
2029;SDS011;1020;48.854;8.830;2023-06-22T06:20:25;9.10;;;7.27;;
2029;SDS011;1020;48.854;8.830;2023-06-22T06:22:54;8.10;;;7.30;;
2029;SDS011;1020;48.854;8.830;2023-06-22T06:25:21;8.27;;;7.57;;
2029;SDS011;1020;48.854;8.830;2023-06-22T06:27:49;8.20;;;7.50;;
2029;SDS011;1020;48.854;8.830;2023-06-22T06:30:19;9.13;;;8.20;;
2029;SDS011;1020;48.854;8.830;2023-06-22T06:32:47;8.07;;;7.37;;
2029;SDS011;1020;48.854;8.830;2023-06-22T06:35:15;8.90;;;8.00;;
2029;SDS011;1020;48.854;8.830;2023-06-22T06:37:42;8.70;;;8.00;;
2029;SDS011;1020;48.854;8.830;2023-06-22T06:40:12;8.27;;;7.50;;
2029;SDS011;1020;48.854;8.830;2023-06-22T06:42:40;8.20;;;7.40;;
2029;SDS011;1020;48.854;8.830;2023-06-22T06:45:10;9.03;;;7.70;;
2029;SDS011;1020;48.854;8.830;2023-06-22T06:47:37;7.87;;;7.20;;
2029;SDS011;1020;48.854;8.830;2023-06-22T06:50:05;7.60;;;6.90;;
2029;SDS011;1020;48.854;8.830;2023-06-22T06:52:32;7.70;;;6.70;;
2029;SDS011;1020;48.854;8.830;2023-06-22T06:54:59;10.83;;;6.63;;
2029;SDS011;1020;48.854;8.830;2023-06-22T06:57:27;6.73;;;6.10;;
2029;SDS011;1020;48.854;8.830;2023-06-22T06:59:55;6.83;;;5.90;;
2029;SDS011;1020;48.854;8.830;2023-06-22T07:02:22;10.23;;;7.50;;
2029;SDS011;1020;48.854;8.830;2023-06-22T07:04:49;6.63;;;6.03;;
2029;SDS011;1020;48.854;8.830;2023-06-22T07:07:16;10.80;;;6.60;;
2029;SDS011;1020;48.854;8.830;2023-06-22T07:09:43;7.97;;;6.17;;
2029;SDS011;1020;48.854;8.830;2023-06-22T07:12:09;6.03;;;5.40;;
2029;SDS011;1020;48.854;8.830;2023-06-22T07:14:38;7.63;;;5.23;;
2029;SDS011;1020;48.854;8.830;2023-06-22T07:17:04;7.10;;;5.57;;
2029;SDS011;1020;48.854;8.830;2023-06-22T07:19:32;7.10;;;5.60;;
2029;SDS011;1020;48.854;8.830;2023-06-22T07:21:59;6.50;;;5.20;;
2029;SDS011;1020;48.854;8.830;2023-06-22T07:24:26;9.00;;;5.70;;
2029;SDS011;1020;48.854;8.830;2023-06-22T07:26:52;5.73;;;5.17;;
2029;SDS011;1020;48.854;8.830;2023-06-22T07:29:19;6.40;;;5.40;;
2029;SDS011;1020;48.854;8.830;2023-06-22T07:31:49;7.23;;;6.50;;
2029;SDS011;1020;48.854;8.830;2023-06-22T07:34:17;6.67;;;5.27;;
2029;SDS011;1020;48.854;8.830;2023-06-22T07:36:44;9.43;;;5.63;;
2029;SDS011;1020;48.854;8.830;2023-06-22T07:39:11;6.13;;;5.37;;
2029;SDS011;1020;48.854;8.830;2023-06-22T07:41:38;7.37;;;5.67;;
2029;SDS011;1020;48.854;8.830;2023-06-22T07:44:06;5.63;;;4.90;;
2029;SDS011;1020;48.854;8.830;2023-06-22T07:46:32;7.23;;;5.10;;
2029;SDS011;1020;48.854;8.830;2023-06-22T07:49:01;7.03;;;5.00;;
2029;SDS011;1020;48.854;8.830;2023-06-22T07:51:28;7.77;;;5.23;;
2029;SDS011;1020;48.854;8.830;2023-06-22T07:53:55;5.70;;;5.20;;
2029;SDS011;1020;48.854;8.830;2023-06-22T07:56:21;5.33;;;4.90;;
2029;SDS011;1020;48.854;8.830;2023-06-22T07:58:48;5.63;;;5.23;;
2029;SDS011;1020;48.854;8.830;2023-06-22T08:01:15;5.67;;;5.23;;
2029;SDS011;1020;48.854;8.830;2023-06-22T08:03:44;7.23;;;5.50;;
2029;SDS011;1020;48.854;8.830;2023-06-22T08:06:12;6.03;;;5.40;;
2029;SDS011;1020;48.854;8.830;2023-06-22T08:08:39;9.17;;;5.90;;
2029;SDS011;1020;48.854;8.830;2023-06-22T08:11:07;6.27;;;5.47;;
2029;SDS011;1020;48.854;8.830;2023-06-22T08:13:34;6.17;;;5.60;;
2029;SDS011;1020;48.854;8.830;2023-06-22T08:16:01;7.13;;;5.43;;
2029;SDS011;1020;48.854;8.830;2023-06-22T08:18:28;6.57;;;5.20;;
2029;SDS011;1020;48.854;8.830;2023-06-22T08:20:55;7.10;;;5.87;;
2029;SDS011;1020;48.854;8.830;2023-06-22T08:23:23;5.97;;;5.47;;
2029;SDS011;1020;48.854;8.830;2023-06-22T08:25:50;8.30;;;5.67;;
2029;SDS011;1020;48.854;8.830;2023-06-22T08:28:17;7.10;;;5.53;;
2029;SDS011;1020;48.854;8.830;2023-06-22T08:30:43;5.10;;;4.70;;
2029;SDS011;1020;48.854;8.830;2023-06-22T08:33:10;6.10;;;5.30;;
2029;SDS011;1020;48.854;8.830;2023-06-22T08:35:37;5.70;;;5.20;;
2029;SDS011;1020;48.854;8.830;2023-06-22T08:38:04;6.37;;;5.27;;
2029;SDS011;1020;48.854;8.830;2023-06-22T08:40:33;7.07;;;5.10;;
2029;SDS011;1020;48.854;8.830;2023-06-22T08:42:59;6.63;;;5.17;;
2029;SDS011;1020;48.854;8.830;2023-06-22T08:45:26;6.30;;;5.63;;
2029;SDS011;1020;48.854;8.830;2023-06-22T08:47:53;6.73;;;6.03;;
2029;SDS011;1020;48.854;8.830;2023-06-22T08:50:20;6.70;;;5.13;;
2029;SDS011;1020;48.854;8.830;2023-06-22T08:52:47;9.83;;;6.50;;
2029;SDS011;1020;48.854;8.830;2023-06-22T08:55:14;7.00;;;5.27;;
2029;SDS011;1020;48.854;8.830;2023-06-22T08:57:42;9.00;;;5.20;;
2029;SDS011;1020;48.854;8.830;2023-06-22T09:00:10;7.07;;;5.43;;
2029;SDS011;1020;48.854;8.830;2023-06-22T09:02:42;7.53;;;5.90;;
2029;SDS011;1020;48.854;8.830;2023-06-22T09:05:09;5.70;;;5.03;;
2029;SDS011;1020;48.854;8.830;2023-06-22T09:07:36;6.50;;;5.90;;
2029;SDS011;1020;48.854;8.830;2023-06-22T09:10:03;10.53;;;5.53;;
2029;SDS011;1020;48.854;8.830;2023-06-22T09:12:30;7.27;;;5.40;;
2029;SDS011;1020;48.854;8.830;2023-06-22T09:14:59;6.43;;;4.87;;
2029;SDS011;1020;48.854;8.830;2023-06-22T09:17:27;11.03;;;5.60;;
2029;SDS011;1020;48.854;8.830;2023-06-22T09:19:54;7.27;;;5.27;;
2029;SDS011;1020;48.854;8.830;2023-06-22T09:22:21;5.93;;;5.33;;
2029;SDS011;1020;48.854;8.830;2023-06-22T09:24:47;5.90;;;5.00;;
2029;SDS011;1020;48.854;8.830;2023-06-22T09:27:14;5.73;;;5.23;;
2029;SDS011;1020;48.854;8.830;2023-06-22T09:29:44;9.27;;;6.00;;
2029;SDS011;1020;48.854;8.830;2023-06-22T09:32:13;8.77;;;6.30;;
2029;SDS011;1020;48.854;8.830;2023-06-22T09:34:39;8.43;;;5.20;;
2029;SDS011;1020;48.854;8.830;2023-06-22T09:37:06;6.27;;;5.20;;
2029;SDS011;1020;48.854;8.830;2023-06-22T09:39:33;6.07;;;5.20;;
2029;SDS011;1020;48.854;8.830;2023-06-22T09:42:01;5.10;;;4.60;;
2029;SDS011;1020;48.854;8.830;2023-06-22T09:44:28;4.83;;;4.43;;
2029;SDS011;1020;48.854;8.830;2023-06-22T09:46:54;10.17;;;5.50;;
2029;SDS011;1020;48.854;8.830;2023-06-22T09:49:22;6.43;;;5.80;;
2029;SDS011;1020;48.854;8.830;2023-06-22T09:51:49;7.07;;;4.70;;
2029;SDS011;1020;48.854;8.830;2023-06-22T09:54:16;6.03;;;5.10;;
2029;SDS011;1020;48.854;8.830;2023-06-22T09:56:43;5.83;;;5.00;;
2029;SDS011;1020;48.854;8.830;2023-06-22T09:59:09;7.07;;;6.10;;
2029;SDS011;1020;48.854;8.830;2023-06-22T10:01:36;5.60;;;5.10;;
2029;SDS011;1020;48.854;8.830;2023-06-22T10:04:03;7.70;;;4.97;;
2029;SDS011;1020;48.854;8.830;2023-06-22T10:06:31;9.03;;;5.27;;
2029;SDS011;1020;48.854;8.830;2023-06-22T10:08:58;10.27;;;5.50;;
2029;SDS011;1020;48.854;8.830;2023-06-22T10:11:25;9.30;;;5.33;;
2029;SDS011;1020;48.854;8.830;2023-06-22T10:13:55;8.90;;;5.50;;
2029;SDS011;1020;48.854;8.830;2023-06-22T10:16:23;5.40;;;4.90;;
2029;SDS011;1020;48.854;8.830;2023-06-22T10:18:56;5.17;;;4.67;;
2029;SDS011;1020;48.854;8.830;2023-06-22T10:21:23;10.33;;;5.43;;
2029;SDS011;1020;48.854;8.830;2023-06-22T10:23:52;7.20;;;5.40;;
2029;SDS011;1020;48.854;8.830;2023-06-22T10:26:19;7.17;;;5.13;;
2029;SDS011;1020;48.854;8.830;2023-06-22T10:28:46;9.63;;;5.60;;
2029;SDS011;1020;48.854;8.830;2023-06-22T10:31:13;12.93;;;5.87;;
2029;SDS011;1020;48.854;8.830;2023-06-22T10:33:41;11.63;;;5.43;;
2029;SDS011;1020;48.854;8.830;2023-06-22T10:36:10;6.70;;;5.57;;
2029;SDS011;1020;48.854;8.830;2023-06-22T10:38:36;5.93;;;5.33;;
2029;SDS011;1020;48.854;8.830;2023-06-22T10:41:05;5.47;;;5.00;;
2029;SDS011;1020;48.854;8.830;2023-06-22T10:43:32;5.40;;;4.90;;
2029;SDS011;1020;48.854;8.830;2023-06-22T10:45:58;7.90;;;5.80;;
2029;SDS011;1020;48.854;8.830;2023-06-22T10:48:25;7.30;;;5.03;;
2029;SDS011;1020;48.854;8.830;2023-06-22T10:50:52;6.40;;;5.20;;
2029;SDS011;1020;48.854;8.830;2023-06-22T10:53:19;7.07;;;5.70;;
2029;SDS011;1020;48.854;8.830;2023-06-22T10:55:46;5.87;;;4.80;;
2029;SDS011;1020;48.854;8.830;2023-06-22T10:58:14;6.13;;;5.43;;
2029;SDS011;1020;48.854;8.830;2023-06-22T11:00:41;6.20;;;5.07;;
2029;SDS011;1020;48.854;8.830;2023-06-22T11:03:08;6.60;;;5.43;;
2029;SDS011;1020;48.854;8.830;2023-06-22T11:05:35;5.73;;;5.23;;
2029;SDS011;1020;48.854;8.830;2023-06-22T11:08:01;7.10;;;5.20;;
2029;SDS011;1020;48.854;8.830;2023-06-22T11:10:28;5.83;;;5.33;;
2029;SDS011;1020;48.854;8.830;2023-06-22T11:12:55;5.90;;;5.30;;
2029;SDS011;1020;48.854;8.830;2023-06-22T11:15:24;6.47;;;5.40;;
2029;SDS011;1020;48.854;8.830;2023-06-22T11:17:51;9.97;;;5.50;;
2029;SDS011;1020;48.854;8.830;2023-06-22T11:20:18;9.00;;;5.70;;
2029;SDS011;1020;48.854;8.830;2023-06-22T11:22:44;6.87;;;5.70;;
2029;SDS011;1020;48.854;8.830;2023-06-22T11:25:11;5.67;;;5.07;;
2029;SDS011;1020;48.854;8.830;2023-06-22T11:27:38;7.30;;;5.47;;
2029;SDS011;1020;48.854;8.830;2023-06-22T11:30:05;5.60;;;5.10;;
2029;SDS011;1020;48.854;8.830;2023-06-22T11:32:34;8.63;;;5.73;;
2029;SDS011;1020;48.854;8.830;2023-06-22T11:35:01;9.27;;;6.17;;
2029;SDS011;1020;48.854;8.830;2023-06-22T11:37:28;7.47;;;5.30;;
2029;SDS011;1020;48.854;8.830;2023-06-22T11:39:55;7.97;;;5.80;;
2029;SDS011;1020;48.854;8.830;2023-06-22T11:42:23;8.40;;;5.70;;
2029;SDS011;1020;48.854;8.830;2023-06-22T11:44:50;7.53;;;5.27;;
2029;SDS011;1020;48.854;8.830;2023-06-22T11:47:17;7.07;;;5.70;;
2029;SDS011;1020;48.854;8.830;2023-06-22T11:49:45;11.00;;;5.87;;
2029;SDS011;1020;48.854;8.830;2023-06-22T11:52:12;8.00;;;6.07;;
2029;SDS011;1020;48.854;8.830;2023-06-22T11:54:38;6.07;;;5.47;;
2029;SDS011;1020;48.854;8.830;2023-06-22T11:57:05;9.17;;;5.90;;
2029;SDS011;1020;48.854;8.830;2023-06-22T11:59:32;6.70;;;6.03;;
2029;SDS011;1020;48.854;8.830;2023-06-22T12:01:59;6.67;;;5.70;;
2029;SDS011;1020;48.854;8.830;2023-06-22T12:04:25;7.43;;;6.73;;
2029;SDS011;1020;48.854;8.830;2023-06-22T12:06:54;6.93;;;6.10;;
2029;SDS011;1020;48.854;8.830;2023-06-22T12:09:20;6.17;;;5.60;;
2029;SDS011;1020;48.854;8.830;2023-06-22T12:11:47;7.03;;;5.97;;
2029;SDS011;1020;48.854;8.830;2023-06-22T12:14:14;9.43;;;6.63;;
2029;SDS011;1020;48.854;8.830;2023-06-22T12:16:41;6.37;;;5.73;;
2029;SDS011;1020;48.854;8.830;2023-06-22T12:19:08;7.50;;;6.33;;
2029;SDS011;1020;48.854;8.830;2023-06-22T12:21:37;7.97;;;5.57;;
2029;SDS011;1020;48.854;8.830;2023-06-22T12:24:05;6.93;;;6.23;;
2029;SDS011;1020;48.854;8.830;2023-06-22T12:26:32;10.03;;;6.90;;
2029;SDS011;1020;48.854;8.830;2023-06-22T12:28:59;7.30;;;5.77;;
2029;SDS011;1020;48.854;8.830;2023-06-22T12:31:26;9.80;;;6.60;;
2029;SDS011;1020;48.854;8.830;2023-06-22T12:33:52;7.03;;;6.30;;
2029;SDS011;1020;48.854;8.830;2023-06-22T12:36:19;6.80;;;6.10;;
2029;SDS011;1020;48.854;8.830;2023-06-22T12:38:46;5.83;;;5.20;;
2029;SDS011;1020;48.854;8.830;2023-06-22T12:41:14;6.47;;;5.87;;
2029;SDS011;1020;48.854;8.830;2023-06-22T12:43:41;8.43;;;6.60;;
2029;SDS011;1020;48.854;8.830;2023-06-22T12:46:07;10.77;;;6.60;;
2029;SDS011;1020;48.854;8.830;2023-06-22T12:48:34;11.33;;;6.30;;
2029;SDS011;1020;48.854;8.830;2023-06-22T12:51:06;11.53;;;7.40;;
2029;SDS011;1020;48.854;8.830;2023-06-22T12:53:33;5.83;;;5.33;;
2029;SDS011;1020;48.854;8.830;2023-06-22T12:56:00;9.90;;;5.77;;
2029;SDS011;1020;48.854;8.830;2023-06-22T12:58:28;6.37;;;4.93;;
2029;SDS011;1020;48.854;8.830;2023-06-22T13:00:55;6.37;;;5.83;;
2029;SDS011;1020;48.854;8.830;2023-06-22T13:03:21;6.20;;;5.13;;
2029;SDS011;1020;48.854;8.830;2023-06-22T13:05:50;8.57;;;5.73;;
2029;SDS011;1020;48.854;8.830;2023-06-22T13:08:16;10.93;;;6.30;;
2029;SDS011;1020;48.854;8.830;2023-06-22T13:10:43;10.37;;;6.20;;
2029;SDS011;1020;48.854;8.830;2023-06-22T13:13:10;8.30;;;6.07;;
2029;SDS011;1020;48.854;8.830;2023-06-22T13:15:38;9.30;;;5.87;;
2029;SDS011;1020;48.854;8.830;2023-06-22T13:18:05;6.13;;;5.53;;
2029;SDS011;1020;48.854;8.830;2023-06-22T13:20:31;7.30;;;4.97;;
2029;SDS011;1020;48.854;8.830;2023-06-22T13:22:58;7.83;;;5.47;;
2029;SDS011;1020;48.854;8.830;2023-06-22T13:25:25;7.63;;;5.27;;
2029;SDS011;1020;48.854;8.830;2023-06-22T13:27:52;11.40;;;6.33;;
2029;SDS011;1020;48.854;8.830;2023-06-22T13:30:22;10.07;;;5.87;;
2029;SDS011;1020;48.854;8.830;2023-06-22T13:32:50;9.47;;;6.40;;
2029;SDS011;1020;48.854;8.830;2023-06-22T13:35:17;8.57;;;5.80;;
2029;SDS011;1020;48.854;8.830;2023-06-22T13:37:44;6.20;;;5.60;;
2029;SDS011;1020;48.854;8.830;2023-06-22T13:40:10;8.57;;;5.70;;
2029;SDS011;1020;48.854;8.830;2023-06-22T13:42:37;6.60;;;6.00;;
2029;SDS011;1020;48.854;8.830;2023-06-22T13:45:05;9.47;;;6.53;;
2029;SDS011;1020;48.854;8.830;2023-06-22T13:47:33;9.97;;;5.17;;
2029;SDS011;1020;48.854;8.830;2023-06-22T13:50:01;7.10;;;6.33;;
2029;SDS011;1020;48.854;8.830;2023-06-22T13:52:28;6.63;;;5.97;;
2029;SDS011;1020;48.854;8.830;2023-06-22T13:54:56;6.50;;;5.77;;
2029;SDS011;1020;48.854;8.830;2023-06-22T13:57:22;9.90;;;5.50;;
2029;SDS011;1020;48.854;8.830;2023-06-22T13:59:49;6.77;;;5.70;;
2029;SDS011;1020;48.854;8.830;2023-06-22T14:02:16;4.70;;;4.10;;
2029;SDS011;1020;48.854;8.830;2023-06-22T14:04:43;5.93;;;4.17;;
2029;SDS011;1020;48.854;8.830;2023-06-22T14:07:11;7.17;;;3.43;;
2029;SDS011;1020;48.854;8.830;2023-06-22T14:09:37;7.57;;;3.63;;
2029;SDS011;1020;48.854;8.830;2023-06-22T14:12:06;7.90;;;3.80;;
2029;SDS011;1020;48.854;8.830;2023-06-22T14:14:33;5.90;;;3.37;;
2029;SDS011;1020;48.854;8.830;2023-06-22T14:17:00;6.03;;;3.77;;
2029;SDS011;1020;48.854;8.830;2023-06-22T14:19:27;8.10;;;3.40;;
2029;SDS011;1020;48.854;8.830;2023-06-22T14:21:54;5.80;;;4.27;;
2029;SDS011;1020;48.854;8.830;2023-06-22T14:24:23;6.43;;;3.27;;
2029;SDS011;1020;48.854;8.830;2023-06-22T14:26:49;5.20;;;3.47;;
2029;SDS011;1020;48.854;8.830;2023-06-22T14:29:16;5.57;;;2.93;;
2029;SDS011;1020;48.854;8.830;2023-06-22T14:31:44;5.47;;;3.97;;
2029;SDS011;1020;48.854;8.830;2023-06-22T14:34:12;6.80;;;3.30;;
2029;SDS011;1020;48.854;8.830;2023-06-22T14:36:39;8.80;;;4.00;;
2029;SDS011;1020;48.854;8.830;2023-06-22T14:39:06;4.37;;;2.90;;
2029;SDS011;1020;48.854;8.830;2023-06-22T14:41:34;7.80;;;3.20;;
2029;SDS011;1020;48.854;8.830;2023-06-22T14:44:01;8.20;;;3.33;;
2029;SDS011;1020;48.854;8.830;2023-06-22T14:46:28;5.33;;;2.87;;
2029;SDS011;1020;48.854;8.830;2023-06-22T14:48:54;6.70;;;3.40;;
2029;SDS011;1020;48.854;8.830;2023-06-22T14:51:21;8.43;;;3.67;;
2029;SDS011;1020;48.854;8.830;2023-06-22T14:53:48;6.30;;;3.27;;
2029;SDS011;1020;48.854;8.830;2023-06-22T14:56:15;8.83;;;3.67;;
2029;SDS011;1020;48.854;8.830;2023-06-22T14:58:43;13.03;;;3.53;;
2029;SDS011;1020;48.854;8.830;2023-06-22T15:01:11;3.40;;;3.03;;
2029;SDS011;1020;48.854;8.830;2023-06-22T15:03:38;4.93;;;3.43;;
2029;SDS011;1020;48.854;8.830;2023-06-22T15:06:04;6.07;;;3.10;;
2029;SDS011;1020;48.854;8.830;2023-06-22T15:08:32;4.90;;;3.67;;
2029;SDS011;1020;48.854;8.830;2023-06-22T15:10:59;7.63;;;3.77;;